createdAt,value
2022-11-30T00:01:25.309Z,99870.31
2022-11-30T00:03:54.902Z,99863.78
2022-11-30T00:06:23.931Z,99860.12
2022-11-30T00:08:58.189Z,99860.28
2022-11-30T00:11:28.770Z,99861.56
2022-11-30T00:13:57.103Z,99861.91
2022-11-30T00:16:25.122Z,99860.47
2022-11-30T00:18:53.591Z,99865.41
2022-11-30T00:21:22.202Z,99861.03
2022-11-30T00:23:50.190Z,99861.75
2022-11-30T00:26:19.627Z,99863.87
2022-11-30T00:28:48.006Z,99859.28
2022-11-30T00:31:17.458Z,99860.62
2022-11-30T00:33:45.929Z,99855.22
2022-11-30T00:36:14.763Z,99860.06
2022-11-30T00:38:43.745Z,99863.56
2022-11-30T00:41:12.540Z,99856.41
2022-11-30T00:43:40.592Z,99859.59
2022-11-30T00:46:11.919Z,99867.56
2022-11-30T00:48:41.331Z,99878.00
2022-11-30T00:51:10.820Z,99863.31
2022-11-30T00:53:39.414Z,99866.91
2022-11-30T00:56:08.871Z,99866.00
2022-11-30T00:58:37.092Z,99869.47
2022-11-30T01:01:05.566Z,99873.50
2022-11-30T01:03:34.560Z,99875.47
2022-11-30T01:06:07.044Z,99877.94
2022-11-30T01:08:35.865Z,99879.22
2022-11-30T01:11:13.251Z,99879.78
2022-11-30T01:13:41.821Z,99878.75
2022-11-30T01:16:12.913Z,99877.41
2022-11-30T01:18:41.841Z,99877.31
2022-11-30T01:21:13.862Z,99878.22
2022-11-30T01:23:42.223Z,99870.31
2022-11-30T01:26:10.731Z,99867.16
2022-11-30T01:28:41.083Z,99868.44
2022-11-30T01:31:11.319Z,99869.97
2022-11-30T01:33:39.815Z,99864.34
2022-11-30T01:36:12.882Z,99858.81
2022-11-30T01:38:43.290Z,99859.53
2022-11-30T01:41:13.232Z,99856.97
2022-11-30T01:43:44.892Z,99852.69
2022-11-30T01:46:27.762Z,99862.47
2022-11-30T01:49:05.481Z,99848.59
2022-11-30T01:51:52.371Z,99857.09
2022-11-30T01:54:24.511Z,99853.72
2022-11-30T01:57:05.016Z,99860.59
2022-11-30T01:59:33.311Z,99854.03
2022-11-30T02:02:01.242Z,99856.47
2022-11-30T02:04:31.768Z,99852.12
2022-11-30T02:07:00.451Z,99855.31
2022-11-30T02:09:29.511Z,99855.75
2022-11-30T02:11:58.039Z,99850.34
2022-11-30T02:14:40.251Z,99850.06
2022-11-30T02:17:21.872Z,99850.47
2022-11-30T02:19:59.513Z,99858.94
2022-11-30T02:22:54.520Z,99861.53
2022-11-30T02:25:37.353Z,99850.31
2022-11-30T02:28:28.042Z,99848.78
2022-11-30T02:30:58.771Z,99845.44
2022-11-30T02:33:29.584Z,99843.53
2022-11-30T02:35:58.871Z,99840.06
2022-11-30T02:38:27.872Z,99838.91
2022-11-30T02:40:56.040Z,99840.16
2022-11-30T02:43:26.536Z,99837.62
2022-11-30T02:45:58.058Z,99843.69
2022-11-30T02:48:44.688Z,99842.91
2022-11-30T02:51:17.951Z,99845.47
2022-11-30T02:53:46.442Z,99837.22
2022-11-30T02:56:15.025Z,99836.75
2022-11-30T02:58:43.202Z,99844.66
2022-11-30T03:01:13.606Z,99842.19
2022-11-30T03:03:41.976Z,99838.72
2022-11-30T03:06:09.881Z,99845.50
2022-11-30T03:08:37.970Z,99835.31
2022-11-30T03:11:06.572Z,99835.63
2022-11-30T03:13:34.985Z,99836.03
2022-11-30T03:16:10.679Z,99834.53
2022-11-30T03:18:39.612Z,99837.66
2022-11-30T03:21:08.704Z,99835.38
2022-11-30T03:23:37.512Z,99843.09
2022-11-30T03:26:06.512Z,99848.28
2022-11-30T03:28:35.976Z,99848.16
2022-11-30T03:31:04.512Z,99846.00
2022-11-30T03:33:33.165Z,99854.25
2022-11-30T03:36:02.613Z,99855.47
2022-11-30T03:38:30.773Z,99849.06
2022-11-30T03:41:08.051Z,99849.06
2022-11-30T03:43:36.102Z,99846.13
2022-11-30T03:46:04.654Z,99848.97
2022-11-30T03:48:32.931Z,99844.16
2022-11-30T03:51:00.991Z,99854.09
2022-11-30T03:53:29.262Z,99851.94
2022-11-30T03:55:59.692Z,99846.16
2022-11-30T03:58:28.072Z,99844.06
2022-11-30T04:01:00.591Z,99846.91
2022-11-30T04:03:29.694Z,99854.31
2022-11-30T04:05:58.200Z,99846.56
2022-11-30T04:08:27.032Z,99846.31
2022-11-30T04:10:56.650Z,99844.66
2022-11-30T04:13:25.541Z,99844.16
2022-11-30T04:15:54.308Z,99845.75
2022-11-30T04:18:24.222Z,99843.97
2022-11-30T04:20:56.643Z,99835.34
2022-11-30T04:23:26.393Z,99853.59
2022-11-30T04:25:54.320Z,99848.53
2022-11-30T04:28:22.265Z,99844.16
2022-11-30T04:30:50.697Z,99851.69
2022-11-30T04:33:18.612Z,99845.75
2022-11-30T04:35:49.391Z,99843.97
2022-11-30T04:38:17.730Z,99849.22
2022-11-30T04:40:45.674Z,99853.59
2022-11-30T04:43:13.992Z,99849.84
2022-11-30T04:45:44.620Z,99850.88
2022-11-30T04:48:13.261Z,99851.63
2022-11-30T04:50:41.415Z,99859.69
2022-11-30T04:53:09.963Z,99852.72
2022-11-30T04:55:38.672Z,99849.09
2022-11-30T04:58:07.231Z,99850.91
2022-11-30T05:00:36.146Z,99848.91
2022-11-30T05:03:04.284Z,99850.72
2022-11-30T05:05:32.280Z,99853.59
2022-11-30T05:08:01.462Z,99853.72
2022-11-30T05:10:30.351Z,99852.72
2022-11-30T05:12:58.520Z,99852.75
2022-11-30T05:15:26.842Z,99862.91
2022-11-30T05:17:58.953Z,99855.31
2022-11-30T05:20:28.620Z,99858.00
2022-11-30T05:22:57.641Z,99861.41
2022-11-30T05:25:25.654Z,99857.97
2022-11-30T05:27:54.011Z,99859.72
2022-11-30T05:30:22.040Z,99850.34
2022-11-30T05:32:49.982Z,99859.66
2022-11-30T05:35:18.361Z,99859.38
2022-11-30T05:37:46.312Z,99864.56
2022-11-30T05:40:14.390Z,99869.16
2022-11-30T05:42:42.705Z,99861.44
2022-11-30T05:45:11.242Z,99861.22
2022-11-30T05:47:39.202Z,99862.34
2022-11-30T05:50:08.093Z,99862.28
2022-11-30T05:52:35.994Z,99860.78
2022-11-30T05:55:04.143Z,99863.34
2022-11-30T05:57:36.858Z,99861.50
2022-11-30T06:00:06.411Z,99871.47
2022-11-30T06:02:39.510Z,99867.59
2022-11-30T06:05:08.732Z,99866.59
2022-11-30T06:07:36.853Z,99873.41
2022-11-30T06:10:05.434Z,99877.63
2022-11-30T06:12:33.733Z,99878.56
2022-11-30T06:15:01.722Z,99880.06
2022-11-30T06:17:29.676Z,99881.91
2022-11-30T06:19:58.043Z,99883.34
2022-11-30T06:22:26.082Z,99887.13
2022-11-30T06:24:54.025Z,99885.69
2022-11-30T06:27:22.341Z,99891.69
2022-11-30T06:29:50.463Z,99895.97
2022-11-30T06:32:18.461Z,99888.94
2022-11-30T06:34:47.039Z,99889.75
2022-11-30T06:37:15.388Z,99897.47
2022-11-30T06:40:05.573Z,99900.44
2022-11-30T06:42:32.405Z,99901.34
2022-11-30T06:45:00.440Z,99903.00
2022-11-30T06:47:28.584Z,99906.94
2022-11-30T06:49:56.857Z,99902.03
2022-11-30T06:52:24.832Z,99901.06
2022-11-30T06:54:52.762Z,99905.66
2022-11-30T06:57:21.582Z,99898.97
2022-11-30T06:59:49.473Z,99903.53
2022-11-30T07:02:18.509Z,99904.25
2022-11-30T07:04:47.470Z,99904.56
2022-11-30T07:07:16.225Z,99902.59
2022-11-30T07:09:44.194Z,99900.44
2022-11-30T07:12:12.851Z,99897.41
2022-11-30T07:14:40.801Z,99897.22
2022-11-30T07:17:08.833Z,99904.38
2022-11-30T07:19:37.237Z,99894.56
2022-11-30T07:22:05.231Z,99900.28
2022-11-30T07:24:51.910Z,99892.28
2022-11-30T07:29:51.746Z,99898.53
2022-11-30T07:32:20.132Z,99899.59
2022-11-30T07:34:48.737Z,99897.91
2022-11-30T07:37:16.715Z,99899.44
2022-11-30T07:39:44.896Z,99908.28
2022-11-30T07:42:12.733Z,99898.19
2022-11-30T07:44:41.601Z,99903.41
2022-11-30T07:47:09.839Z,99902.75
2022-11-30T07:49:39.231Z,99897.53
2022-11-30T07:52:07.339Z,99901.47
2022-11-30T07:54:35.750Z,99898.75
2022-11-30T07:57:03.778Z,99896.19
2022-11-30T07:59:31.683Z,99894.13
2022-11-30T08:02:00.957Z,99903.22
2022-11-30T08:04:29.621Z,99909.16
2022-11-30T08:06:57.527Z,99901.28
2022-11-30T08:09:25.278Z,99898.94
2022-11-30T08:11:53.708Z,99895.22
2022-11-30T08:14:21.579Z,99904.34
2022-11-30T08:16:49.631Z,99906.56
2022-11-30T08:19:17.879Z,99901.44
2022-11-30T08:21:45.830Z,99898.91
2022-11-30T08:24:14.356Z,99888.91
2022-11-30T08:26:44.149Z,99891.69
2022-11-30T08:29:12.130Z,99888.88
2022-11-30T08:31:40.179Z,99881.84
2022-11-30T08:34:11.241Z,99886.22
2022-11-30T08:36:39.852Z,99884.53
2022-11-30T08:39:09.375Z,99885.56
2022-11-30T08:41:39.298Z,99878.13
2022-11-30T08:44:07.526Z,99880.78
2022-11-30T08:46:50.881Z,99870.63
2022-11-30T08:49:23.792Z,99879.16
2022-11-30T08:52:16.381Z,99879.16
2022-11-30T08:54:47.603Z,99872.53
2022-11-30T08:57:21.790Z,99885.41
2022-11-30T08:59:50.262Z,99875.94
2022-11-30T09:02:19.375Z,99877.00
2022-11-30T09:04:49.594Z,99879.34
2022-11-30T09:07:18.478Z,99885.00
2022-11-30T09:09:46.560Z,99888.22
2022-11-30T09:12:14.699Z,99901.06
2022-11-30T09:14:43.220Z,99891.59
2022-11-30T09:17:11.220Z,99898.69
2022-11-30T09:19:40.154Z,99891.69
2022-11-30T09:22:08.451Z,99889.84
2022-11-30T09:24:38.321Z,99892.63
2022-11-30T09:27:06.330Z,99890.00
2022-11-30T09:29:34.589Z,99894.31
2022-11-30T09:32:02.541Z,99892.69
2022-11-30T09:34:30.589Z,99890.72
2022-11-30T09:36:58.806Z,99887.22
2022-11-30T09:39:26.930Z,99895.13
2022-11-30T09:42:19.385Z,99887.50
2022-11-30T09:45:02.826Z,99886.81
2022-11-30T09:48:07.208Z,99882.44
2022-11-30T09:50:43.459Z,99884.09
2022-11-30T09:53:24.666Z,99875.53
2022-11-30T09:55:59.552Z,99879.97
2022-11-30T09:58:45.401Z,99882.19
2022-11-30T10:01:19.383Z,99876.44
2022-11-30T10:03:48.640Z,99873.56
2022-11-30T10:06:34.945Z,99876.47
2022-11-30T10:09:39.580Z,99879.72
2022-11-30T10:12:14.994Z,99867.72
2022-11-30T10:15:00.589Z,99873.81
2022-11-30T10:18:07.030Z,99862.59
2022-11-30T10:20:47.571Z,99863.47
2022-11-30T10:23:33.601Z,99851.91
2022-11-30T10:26:12.600Z,99851.19
2022-11-30T10:28:52.839Z,99848.75
2022-11-30T10:31:36.192Z,99843.69
2022-11-30T10:34:22.751Z,99841.13
2022-11-30T10:37:15.773Z,99846.25
2022-11-30T10:40:02.579Z,99833.13
2022-11-30T10:42:48.251Z,99843.28
2022-11-30T10:45:23.929Z,99846.13
2022-11-30T10:48:07.041Z,99843.63
2022-11-30T10:50:35.021Z,99853.06
2022-11-30T10:53:03.443Z,99852.16
2022-11-30T10:55:35.921Z,99852.25
2022-11-30T10:58:21.908Z,99846.22
2022-11-30T11:01:26.499Z,99844.50
2022-11-30T11:04:12.994Z,99846.88
2022-11-30T11:06:46.821Z,99836.62
2022-11-30T11:09:27.632Z,99838.56
2022-11-30T11:11:58.170Z,99835.09
2022-11-30T11:14:29.724Z,99832.47
2022-11-30T11:17:26.980Z,99829.88
2022-11-30T11:19:55.253Z,99838.44
2022-11-30T11:22:25.450Z,99834.91
2022-11-30T11:25:10.638Z,99842.75
2022-11-30T11:27:44.718Z,99848.72
2022-11-30T11:30:19.201Z,99842.59
2022-11-30T11:33:16.340Z,99846.31
2022-11-30T11:35:52.690Z,99844.66
2022-11-30T11:38:53.680Z,99838.59
2022-11-30T11:41:35.015Z,99838.31
2022-11-30T11:44:08.201Z,99847.06
2022-11-30T11:46:54.703Z,99849.81
2022-11-30T11:49:29.279Z,99839.41
2022-11-30T11:52:06.363Z,99850.66
2022-11-30T11:54:57.141Z,99838.59
2022-11-30T11:57:55.458Z,99836.84
2022-11-30T12:00:25.521Z,99829.94
2022-11-30T12:03:14.780Z,99828.09
2022-11-30T12:06:04.365Z,99823.69
2022-11-30T12:08:35.869Z,99823.00
2022-11-30T12:11:18.059Z,99818.66
2022-11-30T12:13:47.270Z,99822.19
2022-11-30T12:16:30.813Z,99822.88
2022-11-30T12:19:15.980Z,99820.25
2022-11-30T12:21:46.891Z,99814.22
2022-11-30T12:24:48.720Z,99814.12
2022-11-30T12:27:36.277Z,99815.97
2022-11-30T12:30:16.329Z,99810.72
2022-11-30T12:33:04.074Z,99805.56
2022-11-30T12:35:51.531Z,99809.00
2022-11-30T12:38:27.260Z,99812.28
2022-11-30T12:41:04.801Z,99808.19
2022-11-30T12:44:04.411Z,99821.97
2022-11-30T12:47:01.141Z,99811.69
2022-11-30T12:49:53.989Z,99805.75
2022-11-30T12:52:29.050Z,99801.44
2022-11-30T12:55:17.319Z,99805.63
2022-11-30T12:58:07.064Z,99797.81
2022-11-30T13:00:44.820Z,99788.37
2022-11-30T13:03:30.528Z,99803.09
2022-11-30T13:06:01.246Z,99796.19
2022-11-30T13:08:43.598Z,99801.38
2022-11-30T13:11:37.831Z,99800.53
2022-11-30T13:14:26.298Z,99797.91
2022-11-30T13:17:06.117Z,99803.97
2022-11-30T13:19:46.980Z,99800.44
2022-11-30T13:22:41.407Z,99802.94
2022-11-30T13:26:05.654Z,99804.72
2022-11-30T13:28:41.222Z,99802.91
2022-11-30T13:31:17.672Z,99807.44
2022-11-30T13:33:50.019Z,99803.13
2022-11-30T13:36:25.080Z,99809.97
2022-11-30T13:39:15.479Z,99811.78
2022-11-30T13:41:49.600Z,99809.97
2022-11-30T13:44:36.121Z,99810.91
2022-11-30T13:47:31.621Z,99816.19
2022-11-30T13:50:01.952Z,99809.19
2022-11-30T13:52:58.677Z,99811.81
2022-11-30T13:55:41.832Z,99809.06
2022-11-30T13:58:12.521Z,99817.87
2022-11-30T14:00:40.871Z,99821.28
2022-11-30T14:03:21.297Z,99809.16
2022-11-30T14:05:59.869Z,99811.81
2022-11-30T14:08:35.504Z,99821.25
2022-11-30T14:11:39.171Z,99820.38
2022-11-30T14:14:47.399Z,99816.88
2022-11-30T14:17:21.657Z,99813.47
2022-11-30T14:19:56.280Z,99812.59
2022-11-30T14:22:25.780Z,99813.41
2022-11-30T14:24:54.541Z,99815.59
2022-11-30T14:27:28.002Z,99817.66
2022-11-30T14:30:01.509Z,99812.25
2022-11-30T14:32:41.020Z,99814.22
2022-11-30T14:35:14.991Z,99810.72
2022-11-30T14:37:52.182Z,99812.25
2022-11-30T14:40:22.392Z,99814.19
2022-11-30T14:43:01.661Z,99820.28
2022-11-30T14:45:32.496Z,99817.66
2022-11-30T14:48:15.119Z,99814.31
2022-11-30T14:50:45.890Z,99813.47
2022-11-30T14:53:53.481Z,99806.47
2022-11-30T14:57:00.120Z,99798.41
2022-11-30T14:59:49.851Z,99800.03
2022-11-30T15:02:26.864Z,99809.25
2022-11-30T15:04:54.779Z,99805.22
2022-11-30T15:07:24.263Z,99803.56
2022-11-30T15:09:58.319Z,99810.53
2022-11-30T15:12:26.699Z,99810.41
2022-11-30T15:15:18.903Z,99815.47
2022-11-30T15:17:48.780Z,99823.22
2022-11-30T15:20:44.708Z,99821.78
2022-11-30T15:23:16.420Z,99824.19
2022-11-30T15:25:51.008Z,99823.16
2022-11-30T15:28:23.197Z,99813.88
2022-11-30T15:30:55.109Z,99813.03
2022-11-30T15:33:24.918Z,99812.09
2022-11-30T15:36:18.835Z,99813.94
2022-11-30T15:38:51.578Z,99816.38
2022-11-30T15:41:22.677Z,99811.72
2022-11-30T15:43:54.789Z,99806.94
2022-11-30T15:46:41.401Z,99807.81
2022-11-30T15:49:26.049Z,99808.06
2022-11-30T15:52:04.973Z,99813.66
2022-11-30T15:54:44.609Z,99807.16
2022-11-30T15:57:12.908Z,99813.06
2022-11-30T15:59:41.394Z,99812.03
2022-11-30T16:02:44.681Z,99812.84
2022-11-30T16:05:14.737Z,99808.66
2022-11-30T16:08:01.611Z,99805.94
2022-11-30T16:10:39.528Z,99819.91
2022-11-30T16:13:07.439Z,99811.88
2022-11-30T16:15:36.948Z,99808.19
2022-11-30T16:18:07.950Z,99798.72
2022-11-30T16:20:36.316Z,99794.75
2022-11-30T16:23:06.110Z,99799.00
2022-11-30T16:25:34.798Z,99790.31
2022-11-30T16:28:03.350Z,99787.78
2022-11-30T16:30:32.280Z,99789.56
2022-11-30T16:33:00.240Z,99796.38
2022-11-30T16:35:35.798Z,99798.53
2022-11-30T16:38:04.664Z,99806.81
2022-11-30T16:40:38.547Z,99799.84
2022-11-30T16:43:07.281Z,99813.09
2022-11-30T16:45:37.512Z,99806.75
2022-11-30T16:48:06.274Z,99806.69
2022-11-30T16:50:34.995Z,99803.37
2022-11-30T16:53:04.327Z,99805.09
2022-11-30T16:55:35.228Z,99800.00
2022-11-30T16:58:03.795Z,99807.72
2022-11-30T17:00:32.488Z,99812.13
2022-11-30T17:03:05.975Z,99818.97
2022-11-30T17:05:35.039Z,99809.34
2022-11-30T17:08:03.327Z,99816.69
2022-11-30T17:10:31.609Z,99808.28
2022-11-30T17:12:59.940Z,99814.34
2022-11-30T17:15:27.922Z,99807.47
2022-11-30T17:17:59.373Z,99807.22
2022-11-30T17:20:28.171Z,99810.19
2022-11-30T17:22:56.143Z,99808.16
2022-11-30T17:25:24.830Z,99801.53
2022-11-30T17:27:53.249Z,99803.87
2022-11-30T17:30:22.152Z,99812.53
2022-11-30T17:32:51.114Z,99816.38
2022-11-30T17:35:19.828Z,99815.75
2022-11-30T17:37:47.938Z,99819.31
2022-11-30T17:40:16.332Z,99822.56
2022-11-30T17:42:44.669Z,99822.94
2022-11-30T17:45:12.780Z,99827.91
2022-11-30T17:47:40.882Z,99829.25
2022-11-30T17:50:09.840Z,99836.38
2022-11-30T17:52:37.858Z,99830.91
2022-11-30T17:55:06.335Z,99831.94
2022-11-30T17:57:34.653Z,99835.44
2022-11-30T18:00:03.041Z,99840.31
2022-11-30T18:02:32.833Z,99843.69
2022-11-30T18:05:01.122Z,99835.41
2022-11-30T18:07:29.096Z,99832.06
2022-11-30T18:09:58.108Z,99831.59
2022-11-30T18:12:26.318Z,99830.19
2022-11-30T18:14:54.109Z,99833.16
2022-11-30T18:17:22.059Z,99829.81
2022-11-30T18:19:50.610Z,99826.69
2022-11-30T18:22:18.370Z,99835.09
2022-11-30T18:24:46.474Z,99833.37
2022-11-30T18:27:15.046Z,99834.16
2022-11-30T18:29:42.897Z,99838.25
2022-11-30T18:32:10.819Z,99834.28
2022-11-30T18:34:38.999Z,99840.00
2022-11-30T18:37:06.928Z,99831.03
2022-11-30T18:39:34.755Z,99837.00
2022-11-30T18:42:02.980Z,99841.41
2022-11-30T18:44:30.819Z,99838.94
2022-11-30T18:46:58.679Z,99847.87
2022-11-30T18:49:27.092Z,99845.75
2022-11-30T18:51:55.004Z,99837.78
2022-11-30T18:54:22.929Z,99846.97
2022-11-30T18:56:51.149Z,99844.50
2022-11-30T18:59:19.109Z,99840.22
2022-11-30T19:01:47.080Z,99838.38
2022-11-30T19:04:15.432Z,99836.38
2022-11-30T19:06:43.746Z,99837.56
2022-11-30T19:09:13.870Z,99838.50
2022-11-30T19:11:43.163Z,99834.78
2022-11-30T19:14:13.860Z,99831.34
2022-11-30T19:16:42.744Z,99838.47
2022-11-30T19:19:14.021Z,99843.81
2022-11-30T19:21:44.508Z,99845.34
2022-11-30T19:24:12.373Z,99840.31
2022-11-30T19:26:40.491Z,99841.37
2022-11-30T19:29:11.091Z,99840.22
2022-11-30T19:31:38.968Z,99842.16
2022-11-30T19:34:12.501Z,99842.44
2022-11-30T19:36:41.916Z,99849.28
2022-11-30T19:39:10.180Z,99848.44
2022-11-30T19:41:37.930Z,99857.56
2022-11-30T19:44:06.068Z,99852.88
2022-11-30T19:46:34.850Z,99855.69
2022-11-30T19:49:03.366Z,99854.25
2022-11-30T19:51:31.827Z,99844.22
2022-11-30T19:54:01.608Z,99850.50
2022-11-30T19:56:31.623Z,99847.31
2022-11-30T19:59:05.193Z,99854.69
2022-11-30T20:01:34.742Z,99857.13
2022-11-30T20:04:03.679Z,99850.84
2022-11-30T20:06:34.501Z,99859.00
2022-11-30T20:09:04.198Z,99842.63
2022-11-30T20:11:33.170Z,99848.84
2022-11-30T20:14:01.110Z,99845.84
2022-11-30T20:16:29.297Z,99842.06
2022-11-30T20:19:01.006Z,99849.41
2022-11-30T20:21:31.382Z,99841.44
2022-11-30T20:24:01.774Z,99849.94
2022-11-30T20:26:32.078Z,99833.66
2022-11-30T20:29:01.830Z,99839.44
2022-11-30T20:31:31.144Z,99846.59
2022-11-30T20:33:59.619Z,99840.59
2022-11-30T20:36:28.039Z,99841.22
2022-11-30T20:38:58.137Z,99844.28
2022-11-30T20:41:26.492Z,99844.56
2022-11-30T20:43:55.087Z,99845.69
2022-11-30T20:46:24.596Z,99842.28
2022-11-30T20:48:52.599Z,99837.03
2022-11-30T20:51:32.022Z,99843.81
2022-11-30T20:54:02.141Z,99841.47
2022-11-30T20:56:30.423Z,99842.00
2022-11-30T20:59:01.570Z,99839.44
2022-11-30T21:01:29.583Z,99834.78
2022-11-30T21:03:59.696Z,99839.78
2022-11-30T21:06:31.434Z,99839.00
2022-11-30T21:09:00.173Z,99840.25
2022-11-30T21:11:28.873Z,99841.78
2022-11-30T21:13:57.679Z,99846.78
2022-11-30T21:16:29.100Z,99842.94
2022-11-30T21:18:59.182Z,99854.38
2022-11-30T21:21:33.276Z,99851.38
2022-11-30T21:24:03.683Z,99854.44
2022-11-30T21:26:34.347Z,99856.59
2022-11-30T21:29:07.509Z,99858.47
2022-11-30T21:31:35.881Z,99858.72
2022-11-30T21:34:05.122Z,99869.09
2022-11-30T21:36:33.206Z,99866.41
2022-11-30T21:39:05.990Z,99880.91
2022-11-30T21:41:35.651Z,99880.03
2022-11-30T21:44:06.059Z,99878.59
2022-11-30T21:46:34.320Z,99883.31
2022-11-30T21:49:02.479Z,99891.63
2022-11-30T21:51:32.008Z,99890.00
2022-11-30T21:54:02.500Z,99898.62
2022-11-30T21:56:33.513Z,99903.13
2022-11-30T21:59:01.789Z,99902.53
2022-11-30T22:01:35.109Z,99906.09
2022-11-30T22:04:04.624Z,99900.16
2022-11-30T22:06:34.079Z,99898.81
2022-11-30T22:09:08.084Z,99900.59
2022-11-30T22:11:39.239Z,99903.00
2022-11-30T22:14:10.681Z,99909.03
2022-11-30T22:16:39.080Z,99903.97
2022-11-30T22:19:07.490Z,99900.81
2022-11-30T22:21:35.581Z,99898.25
2022-11-30T22:24:09.728Z,99887.41
2022-11-30T22:26:42.788Z,99893.41
2022-11-30T22:29:16.399Z,99889.75
2022-11-30T22:31:46.168Z,99886.19
2022-11-30T22:34:15.028Z,99894.09
2022-11-30T22:36:44.580Z,99887.28
2022-11-30T22:39:12.397Z,99886.28
2022-11-30T22:41:42.028Z,99888.50
2022-11-30T22:44:14.766Z,99888.63
2022-11-30T22:46:44.346Z,99882.56
2022-11-30T22:49:19.908Z,99879.28
2022-11-30T22:51:49.624Z,99874.56
2022-11-30T22:54:17.692Z,99875.06
2022-11-30T22:56:46.822Z,99873.19
2022-11-30T22:59:16.055Z,99871.47
2022-11-30T23:01:46.343Z,99864.31
2022-11-30T23:04:16.600Z,99858.91
2022-11-30T23:06:45.580Z,99861.13
2022-11-30T23:09:15.883Z,99861.38
2022-11-30T23:11:44.290Z,99856.47
2022-11-30T23:14:12.400Z,99849.00
2022-11-30T23:16:40.503Z,99850.47
2022-11-30T23:19:10.271Z,99848.97
2022-11-30T23:21:41.826Z,99857.88
2022-11-30T23:24:15.217Z,99863.28
2022-11-30T23:26:43.485Z,99866.25
2022-11-30T23:29:13.900Z,99860.88
2022-11-30T23:31:42.869Z,99852.66
2022-11-30T23:34:14.290Z,99857.28
2022-11-30T23:36:42.574Z,99858.09
2022-11-30T23:39:15.610Z,99865.22
2022-11-30T23:41:43.800Z,99869.00
2022-11-30T23:44:12.139Z,99865.22
2022-11-30T23:46:40.333Z,99870.63
2022-11-30T23:49:08.628Z,99871.56
2022-11-30T23:51:36.549Z,99873.31
2022-11-30T23:54:04.951Z,99878.53
2022-11-30T23:56:33.081Z,99882.41
2022-11-30T23:59:01.040Z,99873.72
